Pombal, Brazil
Current Conditions -  °F | °C
As of 12:00 PM on Thursday 23 Oct 2014 (Local Time) from SBJU Reporting Station
Broken Clouds Broken Clouds  
Wind Chill: 91°   Ceiling: 2200
Heat Index: 94°   Visibility: 6mi
Dew Point: 66°   Wind: 8mph
Humidity: 43%   Direction: 190°S
Pressure: 30.03"   Gusts: NA
Location:  6.77°S, 37.8°W
Report Text: SBJU 231500Z 19007KT 9999 BKN022 33/19 Q1017
Loading
Personal Weather Stations






























Interactive Weather Map
Tropical Storm Tracking
New forecast layout! Learn more

10-Day Weather Forecast

Advertisements
Track Severe Weather on mobile